createdAt,value
2019-04-16T00:00:28.741Z,17.28
2019-04-16T00:01:37.623Z,17.26
2019-04-16T00:02:55.414Z,17.19
2019-04-16T00:04:04.298Z,17.23
2019-04-16T00:05:13.438Z,17.3
2019-04-16T00:06:23.177Z,17.21
2019-04-16T00:07:32.627Z,17.28
2019-04-16T00:08:42.048Z,17.22
2019-04-16T00:09:51.446Z,17.3
2019-04-16T00:11:00.601Z,17.26
2019-04-16T00:12:09.794Z,17.18
2019-04-16T00:13:18.674Z,17.33
2019-04-16T00:14:28.099Z,17.23
2019-04-16T00:15:40.813Z,17.23
2019-04-16T00:16:50.931Z,17.21
2019-04-16T00:18:00.164Z,17.28
2019-04-16T00:19:11.260Z,17.23
2019-04-16T00:20:20.134Z,17.26
2019-04-16T00:21:29.280Z,17.23
2019-04-16T00:22:38.157Z,17.28
2019-04-16T00:23:49.340Z,17.33
2019-04-16T00:24:58.564Z,17.22
2019-04-16T00:26:07.712Z,17.34
2019-04-16T00:27:16.586Z,17.26
2019-04-16T00:28:30.444Z,17.21
2019-04-16T00:29:42.017Z,17.26
2019-04-16T00:30:50.892Z,17.28
2019-04-16T00:32:00.039Z,17.21
2019-04-16T00:33:15.775Z,17.23
2019-04-16T00:34:24.927Z,17.25
2019-04-16T00:35:34.091Z,17.25
2019-04-16T00:36:43.302Z,17.28
2019-04-16T00:37:57.618Z,17.19
2019-04-16T00:39:06.783Z,17.33
2019-04-16T00:40:15.657Z,17.26
2019-04-16T00:41:28.503Z,17.19
2019-04-16T00:42:37.385Z,17.28
2019-04-16T00:43:48.618Z,17.22
2019-04-16T00:44:58.081Z,17.19
2019-04-16T00:46:13.338Z,17.23
2019-04-16T00:47:22.219Z,17.23
2019-04-16T00:48:31.639Z,17.25
2019-04-16T00:49:42.325Z,17.28
2019-04-16T00:50:51.212Z,17.19
2019-04-16T00:52:05.343Z,17.19
2019-04-16T00:53:15.054Z,17.25
2019-04-16T00:54:23.933Z,17.15
2019-04-16T00:55:33.074Z,17.3
2019-04-16T00:56:43.470Z,17.19
2019-04-16T00:57:55.540Z,17.22
2019-04-16T00:59:04.616Z,17.25
2019-04-16T01:00:13.492Z,17.22
2019-04-16T01:01:22.635Z,17.19
2019-04-16T01:02:31.781Z,17.26
2019-04-16T01:03:40.661Z,17.18
2019-04-16T01:04:49.546Z,17.16
2019-04-16T01:05:58.689Z,17.15
2019-04-16T01:07:12.034Z,17.16
2019-04-16T01:08:34.390Z,17.19
2019-04-16T01:09:43.292Z,17.18
2019-04-16T01:10:52.484Z,17.14
2019-04-16T01:12:01.902Z,17.21
2019-04-16T01:13:11.310Z,17.18
2019-04-16T01:14:20.455Z,17.18
2019-04-16T01:15:36.054Z,17.18
2019-04-16T01:16:45.200Z,17.15
2019-04-16T01:17:54.887Z,17.21
2019-04-16T01:19:04.029Z,17.28
2019-04-16T01:20:17.507Z,17.21
2019-04-16T01:21:26.969Z,17.22
2019-04-16T01:22:36.380Z,17.21
2019-04-16T01:23:48.276Z,17.15
2019-04-16T01:24:57.869Z,17.16
2019-04-16T01:26:07.024Z,17.18
2019-04-16T01:27:16.433Z,17.19
2019-04-16T01:28:25.304Z,17.22
2019-04-16T01:29:39.096Z,17.22
2019-04-16T01:30:48.239Z,17.23
2019-04-16T01:31:57.110Z,17.23
2019-04-16T01:33:05.993Z,17.19
2019-04-16T01:34:22.036Z,17.14
2019-04-16T01:35:31.474Z,17.19
2019-04-16T01:36:40.348Z,17.22
2019-04-16T01:37:49.229Z,17.22
2019-04-16T01:39:20.548Z,17.19
2019-04-16T01:40:29.698Z,17.15
2019-04-16T01:41:38.846Z,17.15
2019-04-16T01:42:47.726Z,17.16
2019-04-16T01:44:02.224Z,17.19
2019-04-16T01:45:11.423Z,17.12
2019-04-16T01:46:20.566Z,17.23
2019-04-16T01:47:29.707Z,17.15
2019-04-16T01:48:44.026Z,17.06
2019-04-16T01:49:53.222Z,17.08
2019-04-16T01:51:02.109Z,17.14
2019-04-16T01:52:10.992Z,17.14
2019-04-16T01:53:26.272Z,17.06
2019-04-16T01:54:35.409Z,17.08
2019-04-16T01:55:47.184Z,17.11
2019-04-16T01:56:59.429Z,17.15
2019-04-16T01:58:09.242Z,17.11
2019-04-16T01:59:18.382Z,17.15
2019-04-16T02:00:27.520Z,17.15
2019-04-16T02:01:36.715Z,17.12
2019-04-16T02:02:51.209Z,17.11
2019-04-16T02:04:00.095Z,17.08
2019-04-16T02:05:08.970Z,17.06
2019-04-16T02:06:18.381Z,17.08
2019-04-16T02:07:32.376Z,17.11
2019-04-16T02:08:41.250Z,17.07
2019-04-16T02:09:50.400Z,17.03
2019-04-16T02:10:59.559Z,17.14
2019-04-16T02:12:12.728Z,17.14
2019-04-16T02:13:22.440Z,17.07
2019-04-16T02:14:31.581Z,17.14
2019-04-16T02:15:40.730Z,17.11
2019-04-16T02:16:49.617Z,17.12
2019-04-16T02:18:03.373Z,17.11
2019-04-16T02:19:12.822Z,17.14
2019-04-16T02:20:21.693Z,17.14
2019-04-16T02:21:30.856Z,17.14
2019-04-16T02:22:42.205Z,17.12
2019-04-16T02:23:54.143Z,17.16
2019-04-16T02:25:03.013Z,17.08
2019-04-16T02:26:12.155Z,17.14
2019-04-16T02:27:23.416Z,17.11
2019-04-16T02:28:35.143Z,17.11
2019-04-16T02:29:44.020Z,17.06
2019-04-16T02:30:53.775Z,17.08
2019-04-16T02:32:04.351Z,17.14
2019-04-16T02:33:13.793Z,17.11
2019-04-16T02:34:23.244Z,17.11
2019-04-16T02:35:32.838Z,17.07
2019-04-16T02:36:42.268Z,17.08
2019-04-16T02:37:51.438Z,17.07
2019-04-16T02:39:00.584Z,17.08
2019-04-16T02:40:16.537Z,17.11
2019-04-16T02:41:28.971Z,17.14
2019-04-16T02:42:38.192Z,17.01
2019-04-16T02:43:47.093Z,17.12
2019-04-16T02:44:56.516Z,17.04
2019-04-16T02:46:05.407Z,17.08
2019-04-16T02:47:14.318Z,17.04
2019-04-16T02:48:23.811Z,17.12
2019-04-16T02:49:33.236Z,17.08
2019-04-16T02:50:42.657Z,17.15
2019-04-16T02:51:52.392Z,17.08
2019-04-16T02:53:01.270Z,17.04
2019-04-16T02:54:10.479Z,17.06
2019-04-16T02:55:19.915Z,17.07
2019-04-16T02:56:29.075Z,17.06
2019-04-16T02:57:38.277Z,17
2019-04-16T02:58:47.161Z,17.14
2019-04-16T02:59:56.052Z,17.11
2019-04-16T03:01:05.203Z,17.06
2019-04-16T03:02:14.352Z,17.07
2019-04-16T03:03:30.207Z,17.06
2019-04-16T03:04:39.630Z,17
2019-04-16T03:05:48.845Z,17.06
2019-04-16T03:07:02.651Z,17.11
2019-04-16T03:08:12.246Z,17.06
2019-04-16T03:09:21.120Z,17
2019-04-16T03:10:30.806Z,17.01
2019-04-16T03:11:39.998Z,17.03
2019-04-16T03:12:56.595Z,17.01
2019-04-16T03:14:05.747Z,16.94
2019-04-16T03:15:14.846Z,17.04
2019-04-16T03:16:23.728Z,16.98
2019-04-16T03:17:32.920Z,17.04
2019-04-16T03:18:51.627Z,17.06
2019-04-16T03:20:01.050Z,16.96
2019-04-16T03:21:10.373Z,17.04
2019-04-16T03:22:19.472Z,16.96
2019-04-16T03:23:28.356Z,16.97
2019-04-16T03:24:43.129Z,16.98
2019-04-16T03:25:52.274Z,16.96
2019-04-16T03:27:04.237Z,16.93
2019-04-16T03:28:13.970Z,16.93
2019-04-16T03:29:23.178Z,16.94
2019-04-16T03:30:45.210Z,17.01
2019-04-16T03:32:02.554Z,17.03
2019-04-16T03:33:19.561Z,16.93
2019-04-16T03:34:28.502Z,16.97
2019-04-16T03:35:37.379Z,17.03
2019-04-16T03:36:46.519Z,16.91
2019-04-16T03:37:55.669Z,16.93
2019-04-16T03:39:14.825Z,16.94
2019-04-16T03:40:30.125Z,16.88
2019-04-16T03:41:39.007Z,16.98
2019-04-16T03:42:47.878Z,17
2019-04-16T03:43:57.041Z,16.97
2019-04-16T03:45:14.299Z,16.97
2019-04-16T03:46:23.452Z,16.93
2019-04-16T03:47:32.601Z,16.98
2019-04-16T03:48:41.753Z,16.98
2019-04-16T03:49:50.905Z,17.01
2019-04-16T03:51:07.841Z,16.97
2019-04-16T03:52:16.709Z,16.96
2019-04-16T03:53:25.863Z,17
2019-04-16T03:54:34.742Z,16.96
2019-04-16T03:55:43.622Z,16.96
2019-04-16T03:56:53.041Z,16.97
2019-04-16T03:58:09.866Z,16.96
2019-04-16T03:59:19.011Z,16.94
2019-04-16T04:00:28.328Z,16.94
2019-04-16T04:01:37.486Z,16.97
2019-04-16T04:02:56.498Z,16.97
2019-04-16T04:04:05.384Z,16.98
2019-04-16T04:05:14.543Z,16.94
2019-04-16T04:06:23.419Z,16.96
2019-04-16T04:07:32.352Z,16.98
2019-04-16T04:08:41.567Z,16.96
2019-04-16T04:10:01.077Z,16.94
2019-04-16T04:11:14.182Z,16.89
2019-04-16T04:12:24.062Z,16.89
2019-04-16T04:13:34.918Z,16.96
2019-04-16T04:14:43.862Z,16.89
2019-04-16T04:15:54.957Z,16.96
2019-04-16T04:17:12.115Z,16.89
2019-04-16T04:18:21.283Z,16.94
2019-04-16T04:19:30.482Z,16.96
2019-04-16T04:20:39.638Z,16.93
2019-04-16T04:21:50.535Z,16.89
2019-04-16T04:23:02.206Z,16.93
2019-04-16T04:24:11.639Z,16.89
2019-04-16T04:25:20.524Z,16.97
2019-04-16T04:26:29.722Z,16.97
2019-04-16T04:27:38.641Z,16.94
2019-04-16T04:28:56.888Z,16.94
2019-04-16T04:30:05.778Z,16.96
2019-04-16T04:31:15.223Z,16.94
2019-04-16T04:32:24.161Z,16.94
2019-04-16T04:33:33.322Z,16.96
2019-04-16T04:34:52.944Z,16.91
2019-04-16T04:36:02.195Z,16.89
2019-04-16T04:37:11.159Z,16.89
2019-04-16T04:38:20.599Z,16.91
2019-04-16T04:39:29.521Z,16.89
2019-04-16T04:40:52.939Z,16.94
2019-04-16T04:42:04.437Z,16.89
2019-04-16T04:43:13.616Z,16.93
2019-04-16T04:44:22.881Z,16.89
2019-04-16T04:45:31.781Z,16.86
2019-04-16T04:46:50.488Z,16.89
2019-04-16T04:47:59.903Z,16.86
2019-04-16T04:49:09.199Z,16.93
2019-04-16T04:50:18.770Z,16.93
2019-04-16T04:51:27.918Z,16.86
2019-04-16T04:52:36.814Z,16.81
2019-04-16T04:53:54.272Z,16.89
2019-04-16T04:55:03.417Z,16.81
2019-04-16T04:56:12.559Z,16.83
2019-04-16T04:57:24.647Z,16.86
2019-04-16T04:58:39.076Z,16.94
2019-04-16T04:59:48.222Z,16.86
2019-04-16T05:00:57.093Z,16.82
2019-04-16T05:02:05.971Z,16.81
2019-04-16T05:03:21.733Z,16.81
2019-04-16T05:04:30.614Z,16.86
2019-04-16T05:05:39.754Z,16.81
2019-04-16T05:06:48.931Z,16.86
2019-04-16T05:08:04.246Z,16.81
2019-04-16T05:09:13.639Z,16.83
2019-04-16T05:10:22.522Z,16.83
2019-04-16T05:11:31.469Z,16.86
2019-04-16T05:12:40.344Z,16.83
2019-04-16T05:13:49.220Z,16.81
2019-04-16T05:15:06.127Z,16.83
2019-04-16T05:16:15.008Z,16.83
2019-04-16T05:17:24.201Z,16.79
2019-04-16T05:18:33.616Z,16.81
2019-04-16T05:19:48.941Z,16.81
2019-04-16T05:20:57.825Z,16.83
2019-04-16T05:22:06.975Z,16.82
2019-04-16T05:23:16.297Z,16.83
2019-04-16T05:24:33.417Z,16.82
2019-04-16T05:25:44.462Z,16.82
2019-04-16T05:26:56.234Z,16.81
2019-04-16T05:28:05.491Z,16.82
2019-04-16T05:29:22.475Z,16.82
2019-04-16T05:30:31.355Z,16.79
2019-04-16T05:31:40.515Z,16.83
2019-04-16T05:32:49.661Z,16.79
2019-04-16T05:34:05.965Z,16.86
2019-04-16T05:35:15.891Z,16.86
2019-04-16T05:36:26.048Z,16.83
2019-04-16T05:37:34.931Z,16.86
2019-04-16T05:38:44.091Z,16.86
2019-04-16T05:39:53.242Z,16.85
2019-04-16T05:41:23.277Z,16.79
2019-04-16T05:42:33.255Z,16.88
2019-04-16T05:43:42.127Z,16.86
2019-04-16T05:44:51.044Z,16.79
2019-04-16T05:45:59.918Z,16.81
2019-04-16T05:47:16.706Z,16.73
2019-04-16T05:48:27.161Z,16.83
2019-04-16T05:49:36.303Z,16.79
2019-04-16T05:50:45.719Z,16.81
2019-04-16T05:51:54.593Z,16.88
2019-04-16T05:53:15.542Z,16.89
2019-04-16T05:54:24.890Z,16.82
2019-04-16T05:55:34.033Z,16.83
2019-04-16T05:56:43.497Z,16.81
2019-04-16T05:57:52.654Z,16.78
2019-04-16T05:59:07.571Z,16.79
2019-04-16T06:00:16.990Z,16.85
2019-04-16T06:01:26.425Z,16.79
2019-04-16T06:02:35.893Z,16.78
2019-04-16T06:03:45.035Z,16.82
2019-04-16T06:05:00.814Z,16.76
2019-04-16T06:06:09.956Z,16.79
2019-04-16T06:07:19.380Z,16.81
2019-04-16T06:08:28.580Z,16.81
2019-04-16T06:09:37.727Z,16.85
2019-04-16T06:10:57.293Z,16.79
2019-04-16T06:12:10.526Z,16.82
2019-04-16T06:13:19.430Z,16.78
2019-04-16T06:14:30.616Z,16.81
2019-04-16T06:15:40.332Z,16.79
2019-04-16T06:16:49.743Z,16.79
2019-04-16T06:18:07.258Z,16.82
2019-04-16T06:19:16.633Z,16.83
2019-04-16T06:20:26.089Z,16.86
2019-04-16T06:21:35.769Z,16.82
2019-04-16T06:22:44.650Z,16.81
2019-04-16T06:23:53.816Z,16.86
2019-04-16T06:25:13.676Z,16.78
2019-04-16T06:26:22.925Z,16.78
2019-04-16T06:27:31.798Z,16.75
2019-04-16T06:28:40.941Z,16.81
2019-04-16T06:29:51.852Z,16.78
2019-04-16T06:31:12.421Z,16.79
2019-04-16T06:32:21.742Z,16.83
2019-04-16T06:33:32.965Z,16.86
2019-04-16T06:34:41.841Z,16.78
2019-04-16T06:35:50.979Z,16.79
2019-04-16T06:36:59.900Z,16.82
2019-04-16T06:38:08.791Z,16.79
2019-04-16T06:39:17.672Z,16.83
2019-04-16T06:40:31.639Z,16.82
2019-04-16T06:41:52.611Z,16.71
2019-04-16T06:43:05.227Z,16.78
2019-04-16T06:44:14.676Z,16.75
2019-04-16T06:45:24.111Z,16.82
2019-04-16T06:46:33.263Z,16.81
2019-04-16T06:47:47.250Z,16.79
2019-04-16T06:48:56.666Z,16.79
2019-04-16T06:50:05.570Z,16.81
2019-04-16T06:51:16.962Z,16.83
2019-04-16T06:52:25.884Z,16.81
2019-04-16T06:53:35.386Z,16.81
2019-04-16T06:54:47.603Z,16.81
2019-04-16T06:55:56.748Z,16.88
2019-04-16T06:57:05.624Z,16.82
2019-04-16T06:58:22.220Z,16.82
2019-04-16T06:59:35.815Z,16.76
2019-04-16T07:00:45.511Z,16.78
2019-04-16T07:01:55.020Z,16.82
2019-04-16T07:03:06.969Z,16.85
2019-04-16T07:04:15.885Z,16.89
2019-04-16T07:05:24.771Z,16.81
2019-04-16T07:06:43.698Z,16.86
2019-04-16T07:07:53.117Z,16.93
2019-04-16T07:09:02.272Z,16.85
2019-04-16T07:10:11.153Z,16.93
2019-04-16T07:11:21.036Z,16.93
2019-04-16T07:12:31.155Z,16.97
2019-04-16T07:13:47.213Z,16.86
2019-04-16T07:14:56.359Z,16.97
2019-04-16T07:16:05.509Z,16.98
2019-04-16T07:17:17.285Z,16.96
2019-04-16T07:18:27.502Z,16.97
2019-04-16T07:19:39.350Z,17
2019-04-16T07:20:51.364Z,16.93
2019-04-16T07:22:00.769Z,16.93
2019-04-16T07:23:09.713Z,16.98
2019-04-16T07:24:22.515Z,16.93
2019-04-16T07:25:47.978Z,16.96
2019-04-16T07:27:01.359Z,16.94
2019-04-16T07:28:10.947Z,16.93
2019-04-16T07:29:20.627Z,17.08
2019-04-16T07:30:29.924Z,17.06
2019-04-16T07:31:43.893Z,17.04
2019-04-16T07:33:00.364Z,17.01
2019-04-16T07:34:10.089Z,17.06
2019-04-16T07:35:19.322Z,17.07
2019-04-16T07:36:32.422Z,17.07
2019-04-16T07:37:41.836Z,17.04
2019-04-16T07:38:50.988Z,17.07
2019-04-16T07:40:00.205Z,17.16
2019-04-16T07:41:19.350Z,17.08
2019-04-16T07:42:31.072Z,17.11
2019-04-16T07:43:39.983Z,17.07
2019-04-16T07:44:48.862Z,17.07
2019-04-16T07:45:59.987Z,17.16
2019-04-16T07:47:09.129Z,17.15
2019-04-16T07:48:22.496Z,17.12
2019-04-16T07:49:32.106Z,17.12
2019-04-16T07:50:41.791Z,17.12
2019-04-16T07:51:50.995Z,17.14
2019-04-16T07:53:00.138Z,17.19
2019-04-16T07:54:09.547Z,17.04
2019-04-16T07:55:18.434Z,17.06
2019-04-16T07:56:31.848Z,17.12
2019-04-16T07:57:41.009Z,17.23
2019-04-16T07:58:50.158Z,17.19
2019-04-16T08:00:10.615Z,17.19
2019-04-16T08:01:20.889Z,17.19
2019-04-16T08:02:29.764Z,17.19
2019-04-16T08:03:38.690Z,17.23
2019-04-16T08:04:48.104Z,17.18
2019-04-16T08:05:57.260Z,17.22
2019-04-16T08:07:06.765Z,17.18
2019-04-16T08:08:15.910Z,17.15
2019-04-16T08:09:35.942Z,17.15
2019-04-16T08:10:44.826Z,17.16
2019-04-16T08:11:53.708Z,17.21
2019-04-16T08:13:05.194Z,17.18
2019-04-16T08:14:16.959Z,17.34
2019-04-16T08:15:26.171Z,17.28
2019-04-16T08:16:48.901Z,17.22
2019-04-16T08:17:58.064Z,17.25
2019-04-16T08:19:06.944Z,17.28
2019-04-16T08:20:24.568Z,17.23
2019-04-16T08:21:34.006Z,17.3
2019-04-16T08:22:51.789Z,17.23
2019-04-16T08:24:00.676Z,17.25
2019-04-16T08:25:10.041Z,17.25
2019-04-16T08:26:19.366Z,17.26
2019-04-16T08:27:28.966Z,17.3
2019-04-16T08:28:37.846Z,17.22
2019-04-16T08:29:46.736Z,17.36
2019-04-16T08:30:56.230Z,17.33
2019-04-16T08:32:05.120Z,17.25
2019-04-16T08:33:15.824Z,17.31
2019-04-16T08:34:24.718Z,17.31
2019-04-16T08:35:34.138Z,17.28
2019-04-16T08:36:43.023Z,17.3
2019-04-16T08:37:53.818Z,17.33
2019-04-16T08:39:10.594Z,17.3
2019-04-16T08:40:19.476Z,17.37
2019-04-16T08:41:29.169Z,17.34
2019-04-16T08:42:48.728Z,17.37
2019-04-16T08:44:09.884Z,17.43
2019-04-16T08:45:22.744Z,17.43
2019-04-16T08:46:33.032Z,17.37
2019-04-16T08:47:49.067Z,17.38
2019-04-16T08:48:59.235Z,17.41
2019-04-16T08:50:11.282Z,17.4
2019-04-16T08:51:39.340Z,17.46
2019-04-16T08:52:48.226Z,17.43
2019-04-16T08:53:57.373Z,17.41
2019-04-16T08:55:07.077Z,17.46
2019-04-16T08:56:16.667Z,17.43
2019-04-16T08:57:25.540Z,17.46
2019-04-16T08:58:42.256Z,17.4
2019-04-16T08:59:51.438Z,17.44
2019-04-16T09:01:01.046Z,17.48
2019-04-16T09:02:10.207Z,17.43
2019-04-16T09:03:19.934Z,17.51
2019-04-16T09:04:38.995Z,17.43
2019-04-16T09:05:48.136Z,17.46
2019-04-16T09:07:10.031Z,17.41
2019-04-16T09:08:26.977Z,17.41
2019-04-16T09:09:36.164Z,17.43
2019-04-16T09:10:47.016Z,17.46
2019-04-16T09:11:56.706Z,17.44
2019-04-16T09:13:09.114Z,17.43
2019-04-16T09:14:28.061Z,17.43
2019-04-16T09:15:37.226Z,17.44
2019-04-16T09:16:47.975Z,17.46
2019-04-16T09:17:57.122Z,17.48
2019-04-16T09:19:06.022Z,17.43
2019-04-16T09:20:15.228Z,17.43
2019-04-16T09:21:30.259Z,17.37
2019-04-16T09:22:58.456Z,17.41
2019-04-16T09:24:13.440Z,17.37
2019-04-16T09:25:22.933Z,17.43
2019-04-16T09:26:32.089Z,17.37
2019-04-16T09:27:41.515Z,17.48
2019-04-16T09:28:50.485Z,17.43
2019-04-16T09:29:59.655Z,17.43
2019-04-16T09:31:08.870Z,17.4
2019-04-16T09:32:17.749Z,17.41
2019-04-16T09:33:37.552Z,17.38
2019-04-16T09:34:46.696Z,17.36
2019-04-16T09:35:55.615Z,17.4
2019-04-16T09:37:04.961Z,17.44
2019-04-16T09:38:17.718Z,17.44
2019-04-16T09:39:27.512Z,17.48
2019-04-16T09:40:36.386Z,17.49
2019-04-16T09:41:45.272Z,17.4
2019-04-16T09:42:54.742Z,17.43
2019-04-16T09:44:03.936Z,17.44
2019-04-16T09:45:13.089Z,17.46
2019-04-16T09:46:53.486Z,17.49
2019-04-16T09:48:10.033Z,17.44
2019-04-16T09:49:19.454Z,17.46
2019-04-16T09:50:28.609Z,17.44
2019-04-16T09:51:37.505Z,17.49
2019-04-16T09:52:46.406Z,17.52
2019-04-16T09:53:59.660Z,17.55
2019-04-16T09:55:08.548Z,17.54
2019-04-16T09:56:31.082Z,17.54
2019-04-16T09:57:40.758Z,17.56
2019-04-16T09:58:49.644Z,17.52
2019-04-16T09:59:58.570Z,17.54
2019-04-16T10:01:07.731Z,17.52
2019-04-16T10:02:16.907Z,17.58
2019-04-16T10:03:28.219Z,17.58
2019-04-16T10:04:37.436Z,17.58
2019-04-16T10:05:46.633Z,17.59
2019-04-16T10:06:56.358Z,17.62
2019-04-16T10:08:05.790Z,17.63
2019-04-16T10:09:25.031Z,17.62
2019-04-16T10:10:34.221Z,17.58
2019-04-16T10:11:43.181Z,17.55
2019-04-16T10:12:52.442Z,17.62
2019-04-16T10:14:01.344Z,17.59
2019-04-16T10:15:10.624Z,17.64
2019-04-16T10:16:19.846Z,17.64
2019-04-16T10:17:28.813Z,17.56
2019-04-16T10:18:40.450Z,17.54
2019-04-16T10:19:49.634Z,17.54
2019-04-16T10:20:59.125Z,17.52
2019-04-16T10:22:08.081Z,17.55
2019-04-16T10:23:17.207Z,17.58
2019-04-16T10:24:26.393Z,17.55
2019-04-16T10:25:38.493Z,17.62
2019-04-16T10:26:48.092Z,17.63
2019-04-16T10:27:57.793Z,17.62
2019-04-16T10:29:10.795Z,17.59
2019-04-16T10:30:20.018Z,17.64
2019-04-16T10:31:28.924Z,17.63
2019-04-16T10:32:38.745Z,17.59
2019-04-16T10:33:47.669Z,17.56
2019-04-16T10:34:57.133Z,17.62
2019-04-16T10:36:10.609Z,17.64
2019-04-16T10:37:20.045Z,17.58
2019-04-16T10:38:29.011Z,17.54
2019-04-16T10:39:37.917Z,17.72
2019-04-16T10:40:46.921Z,17.63
2019-04-16T10:41:58.666Z,17.68
2019-04-16T10:43:07.737Z,17.64
2019-04-16T10:44:17.875Z,17.66
2019-04-16T10:45:27.067Z,17.64
2019-04-16T10:46:36.323Z,17.7
2019-04-16T10:47:45.927Z,17.64
2019-04-16T10:48:54.831Z,17.75
2019-04-16T10:50:04.020Z,17.7
2019-04-16T10:51:17.609Z,17.71
2019-04-16T10:52:26.886Z,17.72
2019-04-16T10:53:36.103Z,17.72
2019-04-16T10:54:45.889Z,17.71
2019-04-16T10:55:55.095Z,17.71
2019-04-16T10:57:04.282Z,17.71
2019-04-16T10:58:17.091Z,17.77
2019-04-16T10:59:26.019Z,17.75
2019-04-16T11:00:35.243Z,17.72
2019-04-16T11:01:44.442Z,17.62
2019-04-16T11:02:53.635Z,17.71
2019-04-16T11:04:04.799Z,17.71
2019-04-16T11:05:20.841Z,17.72
2019-04-16T11:06:30.208Z,17.72
2019-04-16T11:07:39.473Z,17.74
2019-04-16T11:08:49.352Z,17.77
2019-04-16T11:09:58.266Z,17.72
2019-04-16T11:11:07.196Z,17.72
2019-04-16T11:12:16.085Z,17.7
2019-04-16T11:13:27.010Z,17.77
2019-04-16T11:14:36.516Z,17.71
2019-04-16T11:15:45.814Z,17.75
2019-04-16T11:16:54.770Z,17.74
2019-04-16T11:18:04.313Z,17.74
2019-04-16T11:19:13.238Z,17.72
2019-04-16T11:20:22.308Z,17.74
2019-04-16T11:21:31.261Z,17.74
2019-04-16T11:22:40.754Z,17.71
2019-04-16T11:23:50.037Z,17.66
2019-04-16T11:24:59.035Z,17.71
2019-04-16T11:26:08.961Z,17.72
2019-04-16T11:27:18.376Z,17.74
2019-04-16T11:28:27.327Z,17.72
2019-04-16T11:29:38.314Z,17.77
2019-04-16T11:30:53.019Z,17.72
2019-04-16T11:32:02.967Z,17.75
2019-04-16T11:33:12.273Z,17.68
2019-04-16T11:34:21.859Z,17.7
2019-04-16T11:35:30.796Z,17.72
2019-04-16T11:36:40.615Z,17.64
2019-04-16T11:37:49.573Z,17.71
2019-04-16T11:38:59.044Z,17.74
2019-04-16T11:40:09.477Z,17.74
2019-04-16T11:41:18.459Z,17.74
2019-04-16T11:42:27.940Z,17.71
2019-04-16T11:43:37.179Z,17.72
2019-04-16T11:44:46.398Z,17.68
2019-04-16T11:45:57.515Z,17.7
2019-04-16T11:47:07.291Z,17.74
2019-04-16T11:48:16.633Z,17.71
2019-04-16T11:49:25.864Z,17.75
2019-04-16T11:50:38.337Z,17.86
2019-04-16T11:51:47.587Z,17.77
2019-04-16T11:53:01.855Z,17.72
2019-04-16T11:54:14.037Z,17.72
2019-04-16T11:55:23.719Z,17.71
2019-04-16T11:56:32.757Z,17.77
2019-04-16T11:57:42.277Z,17.74
2019-04-16T11:58:51.263Z,17.71
2019-04-16T12:00:12.378Z,17.72
2019-04-16T12:01:25.489Z,17.75
2019-04-16T12:02:38.519Z,17.74
2019-04-16T12:03:47.976Z,17.79
2019-04-16T12:05:03.773Z,17.7
2019-04-16T12:06:26.888Z,17.72
2019-04-16T12:07:36.845Z,17.7
2019-04-16T12:08:46.366Z,17.72
2019-04-16T12:09:55.491Z,17.71
2019-04-16T12:11:04.712Z,17.81
2019-04-16T12:12:13.982Z,17.78
2019-04-16T12:13:22.945Z,17.84
2019-04-16T12:14:44.514Z,17.82
2019-04-16T12:15:53.714Z,17.72
2019-04-16T12:17:02.740Z,17.72
2019-04-16T12:18:12.063Z,17.71
2019-04-16T12:19:21.502Z,17.79
2019-04-16T12:20:30.789Z,17.7
2019-04-16T12:21:39.702Z,17.74
2019-04-16T12:22:48.949Z,17.72
2019-04-16T12:23:57.945Z,17.77
2019-04-16T12:25:07.415Z,17.71
2019-04-16T12:26:16.993Z,17.68
2019-04-16T12:27:25.996Z,17.64
2019-04-16T12:28:35.556Z,17.77
2019-04-16T12:29:49.255Z,17.71
2019-04-16T12:30:58.247Z,17.74
2019-04-16T12:32:09.564Z,17.63
2019-04-16T12:33:19.117Z,17.74
2019-04-16T12:34:28.276Z,17.59
2019-04-16T12:35:40.154Z,17.71
2019-04-16T12:36:52.869Z,17.62
2019-04-16T12:38:02.390Z,17.66
2019-04-16T12:39:21.497Z,17.66
2019-04-16T12:40:31.001Z,17.77
2019-04-16T12:41:40.242Z,17.66
2019-04-16T12:42:49.221Z,17.63
2019-04-16T12:43:58.846Z,17.7
2019-04-16T12:45:11.324Z,17.74
2019-04-16T12:46:20.685Z,17.74
2019-04-16T12:47:29.917Z,17.7
2019-04-16T12:48:38.921Z,17.66
2019-04-16T12:49:48.134Z,17.7
2019-04-16T12:50:57.161Z,17.59
2019-04-16T12:52:06.471Z,17.66
2019-04-16T12:53:20.897Z,17.56
2019-04-16T12:54:30.985Z,17.74
2019-04-16T12:55:43.070Z,17.59
2019-04-16T12:56:52.292Z,17.7
2019-04-16T12:58:03.920Z,17.62
2019-04-16T12:59:13.034Z,17.56
2019-04-16T13:00:34.090Z,17.68
2019-04-16T13:01:43.016Z,17.55
2019-04-16T13:02:51.907Z,17.55
2019-04-16T13:04:01.594Z,17.64
2019-04-16T13:05:10.921Z,17.58
2019-04-16T13:06:20.042Z,17.55
2019-04-16T13:07:33.010Z,17.66
2019-04-16T13:08:45.936Z,17.66
2019-04-16T13:09:58.208Z,17.62
2019-04-16T13:11:10.807Z,17.58
2019-04-16T13:12:20.033Z,17.64
2019-04-16T13:13:28.912Z,17.64
2019-04-16T13:14:40.063Z,17.54
2019-04-16T13:16:04.705Z,17.59
2019-04-16T13:17:15.056Z,17.72
2019-04-16T13:18:27.785Z,17.77
2019-04-16T13:19:36.930Z,17.66
2019-04-16T13:20:45.804Z,17.71
2019-04-16T13:21:55.225Z,17.59
2019-04-16T13:23:07.105Z,17.75
2019-04-16T13:24:16.258Z,17.74
2019-04-16T13:25:25.404Z,17.78
2019-04-16T13:26:34.550Z,17.71
2019-04-16T13:27:43.428Z,17.74
2019-04-16T13:28:59.727Z,17.66
2019-04-16T13:30:09.143Z,17.71
2019-04-16T13:31:18.024Z,17.66
2019-04-16T13:32:30.069Z,17.7
2019-04-16T13:33:39.212Z,17.66
2019-04-16T13:34:51.362Z,17.74
2019-04-16T13:36:02.664Z,17.56
2019-04-16T13:37:12.090Z,17.55
2019-04-16T13:38:20.964Z,17.66
2019-04-16T13:39:30.386Z,17.66
2019-04-16T13:40:41.350Z,17.64
2019-04-16T13:41:51.407Z,17.59
2019-04-16T13:43:01.213Z,17.59
2019-04-16T13:44:17.172Z,17.66
2019-04-16T13:45:31.537Z,17.7
2019-04-16T13:46:41.014Z,17.66
2019-04-16T13:47:54.375Z,17.62
2019-04-16T13:49:19.997Z,17.74
2019-04-16T13:50:43.547Z,17.72
2019-04-16T13:51:52.794Z,17.77
2019-04-16T13:53:04.517Z,17.72
2019-04-16T13:54:13.936Z,17.71
2019-04-16T13:55:23.074Z,17.75
2019-04-16T13:56:32.009Z,17.71
2019-04-16T13:57:40.906Z,17.77
2019-04-16T13:58:49.782Z,17.68
2019-04-16T14:00:05.790Z,17.71
2019-04-16T14:01:15.568Z,17.66
2019-04-16T14:02:25.016Z,17.74
2019-04-16T14:03:33.895Z,17.74
2019-04-16T14:04:43.306Z,17.75
2019-04-16T14:05:52.993Z,17.68
2019-04-16T14:07:01.880Z,17.78
2019-04-16T14:08:11.505Z,17.68
2019-04-16T14:09:20.391Z,17.75
2019-04-16T14:10:29.548Z,17.77
2019-04-16T14:11:38.707Z,17.75
2019-04-16T14:12:47.863Z,17.72
2019-04-16T14:13:57.286Z,17.72
2019-04-16T14:15:10.450Z,17.72
2019-04-16T14:16:19.329Z,17.7
2019-04-16T14:17:28.493Z,17.72
2019-04-16T14:18:44.760Z,17.72
2019-04-16T14:19:54.434Z,17.68
2019-04-16T14:21:03.688Z,17.74
2019-04-16T14:22:12.897Z,17.74
2019-04-16T14:23:26.702Z,17.7
2019-04-16T14:24:35.839Z,17.71
2019-04-16T14:25:45.518Z,17.71
2019-04-16T14:26:54.399Z,17.72
2019-04-16T14:28:08.124Z,17.72
2019-04-16T14:29:17.315Z,17.74
2019-04-16T14:30:29.522Z,17.71
2019-04-16T14:31:38.958Z,17.71
2019-04-16T14:32:50.808Z,17.82
2019-04-16T14:33:59.684Z,17.72
2019-04-16T14:35:08.607Z,17.7
2019-04-16T14:36:18.021Z,17.77
2019-04-16T14:37:27.166Z,17.7
2019-04-16T14:38:36.851Z,17.71
2019-04-16T14:39:45.738Z,17.82
2019-04-16T14:40:54.618Z,17.82
2019-04-16T14:42:04.295Z,17.75
2019-04-16T14:43:13.234Z,17.79
2019-04-16T14:44:22.378Z,17.9
2019-04-16T14:45:33.331Z,17.75
2019-04-16T14:47:06.411Z,17.78
2019-04-16T14:48:15.948Z,17.71
2019-04-16T14:49:24.820Z,17.82
2019-04-16T14:50:37.810Z,17.84
2019-04-16T14:51:46.963Z,17.86
2019-04-16T14:52:55.849Z,17.82
2019-04-16T14:54:05.385Z,17.84
2019-04-16T14:55:14.810Z,17.81
2019-04-16T14:56:24.235Z,17.82
2019-04-16T14:57:33.115Z,17.75
2019-04-16T14:58:44.714Z,17.82
2019-04-16T14:59:53.913Z,17.82
2019-04-16T15:01:03.066Z,17.84
2019-04-16T15:02:12.269Z,17.82
2019-04-16T15:03:21.431Z,17.84
2019-04-16T15:04:30.573Z,17.82
2019-04-16T15:05:39.717Z,17.81
2019-04-16T15:06:58.144Z,17.84
2019-04-16T15:08:07.570Z,17.82
2019-04-16T15:09:16.719Z,17.9
2019-04-16T15:10:26.413Z,17.9
2019-04-16T15:11:35.351Z,17.86
2019-04-16T15:12:44.227Z,17.82
2019-04-16T15:13:53.119Z,17.86
2019-04-16T15:15:02.004Z,17.84